Flight Track Log - Related Links

Times and Time Zones

All times are in EDT time to prevent confusion due to time zone crossing. See the GLA36K flight status page for this flight to view local times or setup timezone preferences in your user account.

Time Position Orientation Groundspeed Altitude Reporting Facility
EDT Latitude Longitude Course Direction KTS MPH feet Rate Location/Type
Thu 01:34:16 PM 39.9167 -104.6833 27° Northeast 172 198 6,000  Level Denver TRACON
Thu 01:35:16 PM 39.9667 -104.6500 27° Northeast 219 252 6,700 804 Climbing Denver TRACON
Thu 01:36:08 PM 40.0031 -104.6119 39° Northeast 225 259 7,500 947 Climbing Denver Center
Thu 01:37:10 PM 40.0644 -104.5656 30° Northeast 235 270 8,500 1,306 Climbing Denver Center
Thu 01:38:12 PM 40.1256 -104.5681 358° North 234 269 10,200 1,452 Climbing Denver Center
Thu 01:39:14 PM 40.1903 -104.5836 350° North 221 254 11,500 774 Climbing Denver Center
Thu 01:40:16 PM 40.2589 -104.5956 352° North 245 282 11,800 288 Climbing Denver Center
Thu 01:41:19 PM 40.3392 -104.5917 North 268 308 12,100 384 Climbing Denver Center
Thu 01:42:21 PM 40.4139 -104.5767 North 272 313 12,600 1,065 Climbing Denver Center
Thu 01:43:23 PM 40.4903 -104.5611 North 258 297 14,300 1,548 Climbing Denver Center
Thu 01:44:25 PM 40.5544 -104.5536 North 235 270 15,800 1,839 Climbing Denver Center
Thu 01:45:27 PM 40.6169 -104.5394 10° North 220 253 18,100 1,355 Climbing Denver Center
Thu 01:46:29 PM 40.6742 -104.5283 North 208 239 18,600 774 Climbing Denver Center
Thu 01:47:31 PM 40.7308 -104.4942 25° Northeast 221 254 19,700 919 Climbing Denver Center
Thu 01:48:33 PM 40.7867 -104.4572 27° Northeast 224 258 20,500 919 Climbing Denver Center
Thu 01:49:35 PM 40.8522 -104.4039 32° Northeast 236 272 21,600 1,016 Climbing Denver Center
Thu 01:50:37 PM 40.9131 -104.3772 18° North 240 276 22,600 871 Climbing Denver Center
Thu 01:51:39 PM 40.9864 -104.3528 14° North 242 278 23,400 774 Climbing Denver Center
Thu 01:52:41 PM 41.0464 -104.3297 16° North 238 274 24,200 774 Climbing Denver Center
Thu 01:53:43 PM 41.1147 -104.2922 22° Northeast 237 273 25,000 677 Climbing Denver Center
Thu 01:54:45 PM 41.1719 -104.2578 24° Northeast 237 273 25,600 726 Climbing Denver Center
Thu 01:55:47 PM 41.2400 -104.2239 21° North 233 268 26,500 581 Climbing Denver Center
Thu 01:56:49 PM 41.3025 -104.2039 14° North 239 275 26,800 242 Climbing Denver Center
Thu 01:57:51 PM 41.3761 -104.1675 20° North 250 288 27,000 96 Climbing Denver Center
Thu 01:58:54 PM 41.4414 -104.1300 23° Northeast 263 303 27,000  Level Denver Center
Thu 01:59:57 PM 41.5211 -104.0933 19° North 272 313 27,000  Level Denver Center
Thu 02:00:59 PM 41.5911 -104.0614 19° North 276 318 27,000  Level Denver Center
Thu 02:02:01 PM 41.6733 -104.0219 20° North 280 322 27,000  Level Denver Center
Thu 02:03:02 PM 41.7450 -103.9872 20° North 285 328 27,000  Level Denver Center
Thu 02:04:17 PM 41.8397 -103.9436 19° North 283 326 27,000  Level Denver Center
Thu 02:05:19 PM 41.9111 -103.9119 18° North 284 327 27,000  Level Denver Center
Thu 02:06:21 PM 41.9936 -103.8739 19° North 283 326 27,000  Level Denver Center
Thu 02:07:23 PM 42.0644 -103.8403 19° North 283 326 27,000  Level Denver Center
Thu 02:08:25 PM 42.1469 -103.8017 19° North 281 323 27,000  Level Denver Center
Thu 02:09:27 PM 42.2183 -103.7694 18° North 283 326 27,000  Level Denver Center
Thu 02:10:29 PM 42.2994 -103.7292 20° North 281 323 27,000  Level Denver Center
Thu 02:11:31 PM 42.3697 -103.6975 18° North 279 321 27,000  Level Denver Center
Thu 02:12:33 PM 42.4514 -103.6614 18° North 278 320 27,000  Level Denver Center
Thu 02:13:35 PM 42.5228 -103.6339 16° North 278 320 27,000  Level Denver Center
Thu 02:14:37 PM 42.6047 -103.6014 16° North 277 319 27,000  Level Denver Center
Thu 02:15:39 PM 42.6756 -103.5744 16° North 277 319 27,000  Level Denver Center
Thu 02:16:41 PM 42.7606 -103.5486 13° North 281 323 27,000  Level Denver Center
Thu 02:17:43 PM 42.8325 -103.5258 13° North 278 320 27,000  Level Denver Center
Thu 02:18:45 PM 42.9172 -103.4989 13° North 280 322 27,000  Level Denver Center
Thu 02:19:47 PM 42.9892 -103.4731 15° North 279 321 27,000  Level Denver Center
Thu 02:20:49 PM 43.0622 -103.4458 15° North 283 326 27,000  Level Denver Center
Thu 02:21:51 PM 43.1453 -103.4097 18° North 281 323 27,000  Level Denver Center
Thu 02:22:53 PM 43.2181 -103.3778 18° North 286 329 27,000  Level Denver Center
Thu 02:23:55 PM 43.3000 -103.3361 20° North 283 326 27,000  Level Denver Center
Thu 02:24:56 PM 43.3711 -103.2981 21° North 285 328 27,000  Level Denver Center
Thu 02:25:58 PM 43.4550 -103.2581 19° North 286 329 27,000  Level Denver Center
Thu 02:27:00 PM 43.5281 -103.2228 19° North 288 331 27,000  Level Denver Center
Thu 02:28:02 PM 43.6114 -103.1792 21° North 288 331 27,000  Level Denver Center
Thu 02:29:04 PM 43.6839 -103.1422 20° North 290 334 27,000  Level Denver Center
Thu 02:30:06 PM 43.7683 -103.1039 18° North 287 330 27,000  Level Denver Center
Thu 02:31:08 PM 43.8433 -103.0775 14° North 287 330 27,000  Level Denver Center
Thu 02:32:10 PM 43.9303 -103.0436 16° North 291 335 27,000  Level Denver Center
Thu 02:33:12 PM 44.0072 -103.0125 16° North 293 337 27,000  Level Denver Center
Thu 02:34:14 PM 44.0800 -103.0142 359° North 288 331 27,000  Level Denver Center
Thu 02:35:16 PM 44.1689 -103.0156 359° North 285 328 27,000  Level Denver Center
Thu 02:36:18 PM 44.2444 -103.0075 North 286 329 27,000  Level Denver Center
Thu 02:37:20 PM 44.3247 -102.9975 North 289 333 27,000  Level Denver Center
Thu 02:38:22 PM 44.4044 -102.9844 North 288 331 27,000  Level Denver Center
Thu 02:39:24 PM 44.4994 -102.9703 North 288 331 27,000  Level Denver Center
Thu 02:40:26 PM 44.5803 -102.9619 North 287 330 27,000  Level Denver Center
Thu 02:41:28 PM 44.6597 -102.9542 North 286 329 27,000  Level Denver Center
Thu 02:42:29 PM 44.7406 -102.9458 North 289 333 27,000  Level Denver Center
Thu 02:43:32 PM 44.8189 -102.9386 North 285 328 27,000  Level Denver Center
Thu 02:44:45 PM 44.9189 -102.9317 North 286 329 27,000  Level Minneapolis Center
Thu 02:45:47 PM 45.0150 -102.9242 North 287 330 27,000  Level Minneapolis Center
Thu 02:46:50 PM 45.0944 -102.9161 North 286 329 27,000  Level Minneapolis Center
Thu 02:47:52 PM 45.1747 -102.9092 North 288 331 27,000  Level Minneapolis Center
Thu 02:48:54 PM 45.2550 -102.9033 North 288 331 27,000  Level Minneapolis Center
Thu 02:49:56 PM 45.3356 -102.8981 North 289 333 27,000 -194 Level Minneapolis Center
Thu 02:50:58 PM 45.4164 -102.8886 North 290 334 26,600 -581 Descending Minneapolis Center
Thu 02:52:00 PM 45.5011 -102.8817 North 299 344 25,800 -823 Descending Minneapolis Center
Thu 02:53:02 PM 45.5969 -102.8722 North 305 351 24,900 -919 Descending Minneapolis Center
Thu 02:54:04 PM 45.6797 -102.8617 North 303 349 23,900 -1,065 Descending Minneapolis Center
Thu 02:55:06 PM 45.7631 -102.8547 North 300 345 22,700 -1,113 Descending Minneapolis Center
Thu 02:56:08 PM 45.8456 -102.8425 North 300 345 21,600 -1,548 Descending Minneapolis Center
Thu 02:57:10 PM 45.9461 -102.8339 North 302 348 19,500 -1,790 Descending Minneapolis Center
Thu 02:58:12 PM 46.0317 -102.8303 North 307 353 17,900 -1,452 Descending Minneapolis Center
Thu 02:59:14 PM 46.1142 -102.8269 North 302 348 16,500 -1,584 Descending Minneapolis Center
Thu 03:00:17 PM 46.1969 -102.8258 North 299 344 14,600 -1,872 Descending Minneapolis Center
Thu 03:01:19 PM 46.2833 -102.8297 358° North 306 352 12,600 -1,984 Descending Minneapolis Center
Thu 03:02:21 PM 46.3692 -102.8344 358° North 309 356 10,500 -2,177 Descending Minneapolis Center
Thu 03:03:23 PM 46.4633 -102.8197 North 295 339 8,100 -2,129 Descending Minneapolis Center
Thu 03:04:25 PM 46.5386 -102.7992 11° North 284 327 6,100 -1,161 Descending Minneapolis Center
Thu 03:05:27 PM 46.6150 -102.7819 North 283 326 5,700 -387 Descending Minneapolis Center
Thu 03:07:00 PM 46.7323 -102.8000 North  Level FlightAware Approximate
Thu 03:14:00 PM 46.7833 -102.8000 North  Level FlightAware Approximate
Thu 03:15:00 PM 46.7973 -102.8019 North  Level Estimated
Thu 03:16:00 PM 46.7973 -102.8019 North  Level Estimated
Thu 03:17:00 PM 46.7973 -102.8019 North  Level Estimated

Login

Don't have an account? Register now (free) for customized features, flight alerts, and more!